createdAt,value
2018-07-08T00:01:00.555Z,94714.02
2018-07-08T00:03:30.435Z,94956.20
2018-07-08T00:06:00.266Z,94955.64
2018-07-08T00:08:30.191Z,94949.38
2018-07-08T00:11:00.527Z,94950.09
2018-07-08T00:13:30.334Z,94942.34
2018-07-08T00:16:00.085Z,94941.00
2018-07-08T00:18:29.878Z,94942.80
2018-07-08T00:20:59.719Z,94946.16
2018-07-08T00:23:29.559Z,94949.66
2018-07-08T00:25:59.330Z,94944.05
2018-07-08T00:28:29.192Z,94946.80
2018-07-08T00:30:58.909Z,94947.41
2018-07-08T00:33:28.666Z,94945.56
2018-07-08T00:35:58.417Z,94942.66
2018-07-08T00:38:28.030Z,94943.95
2018-07-08T00:40:57.778Z,94939.77
2018-07-08T00:43:27.668Z,94953.80
2018-07-08T00:45:57.473Z,94941.13
2018-07-08T00:48:27.250Z,94935.95
2018-07-08T00:50:57.017Z,94930.80
2018-07-08T00:53:26.701Z,94933.73
2018-07-08T00:55:56.452Z,94926.01
2018-07-08T00:58:26.268Z,94926.34
2018-07-08T01:00:56.079Z,94925.44
2018-07-08T01:03:25.800Z,94924.65
2018-07-08T01:05:55.970Z,94921.16
2018-07-08T01:08:25.757Z,94928.44
2018-07-08T01:10:55.515Z,94929.34
2018-07-08T01:13:25.465Z,94923.18
2018-07-08T01:15:55.244Z,94917.80
2018-07-08T01:18:24.940Z,94926.33
2018-07-08T01:20:54.721Z,94920.62
2018-07-08T01:23:24.396Z,94918.25
2018-07-08T01:26:17.089Z,94922.27
2018-07-08T01:28:46.780Z,94928.06
2018-07-08T01:31:16.630Z,94923.50
2018-07-08T01:33:47.370Z,94919.80
2018-07-08T01:36:17.109Z,94923.54
2018-07-08T01:38:46.921Z,94931.57
2018-07-08T01:41:16.920Z,94936.38
2018-07-08T01:43:47.115Z,94931.87
2018-07-08T01:46:16.871Z,94938.73
2018-07-08T01:48:46.801Z,94935.86
2018-07-08T01:51:16.630Z,94935.23
2018-07-08T01:53:46.503Z,94941.16
2018-07-08T01:56:16.391Z,94935.72
2018-07-08T01:58:46.246Z,94938.70
2018-07-08T02:01:16.152Z,94933.81
2018-07-08T02:03:45.975Z,94931.20
2018-07-08T02:06:16.065Z,94937.75
2018-07-08T02:08:46.370Z,94931.91
2018-07-08T02:11:16.213Z,94937.41
2018-07-08T02:13:46.078Z,94932.13
2018-07-08T02:16:15.916Z,94938.78
2018-07-08T02:18:45.857Z,94938.64
2018-07-08T02:21:15.676Z,94935.16
2018-07-08T02:23:46.043Z,94942.95
2018-07-08T02:26:15.905Z,94943.21
2018-07-08T02:28:45.833Z,94946.69
2018-07-08T02:31:15.638Z,94947.27
2018-07-08T02:33:45.290Z,94948.69
2018-07-08T02:36:15.063Z,94946.19
2018-07-08T02:38:44.895Z,94950.64
2018-07-08T02:41:14.804Z,94950.81
2018-07-08T02:43:44.828Z,94952.16
2018-07-08T02:46:14.955Z,94905.69
2018-07-08T02:48:44.821Z,94952.00
2018-07-08T02:51:14.629Z,94956.88
2018-07-08T02:53:44.451Z,94947.45
2018-07-08T02:56:14.185Z,94955.09
2018-07-08T02:58:43.918Z,94947.44
2018-07-08T03:01:13.666Z,94952.54
2018-07-08T03:03:43.570Z,94961.36
2018-07-08T03:06:13.340Z,94954.00
2018-07-08T03:08:43.356Z,94959.62
2018-07-08T03:11:13.115Z,94967.03
2018-07-08T03:13:42.875Z,94964.69
2018-07-08T03:16:12.683Z,94964.98
2018-07-08T03:18:42.527Z,94964.70
2018-07-08T03:21:12.242Z,94961.11
2018-07-08T03:23:41.874Z,94960.02
2018-07-08T03:26:11.642Z,94969.27
2018-07-08T03:28:41.352Z,94966.32
2018-07-08T03:31:11.299Z,94960.41
2018-07-08T03:33:41.087Z,94964.73
2018-07-08T03:36:10.893Z,94965.28
2018-07-08T03:38:40.687Z,94965.58
2018-07-08T03:41:10.463Z,94960.66
2018-07-08T03:43:40.338Z,94963.39
2018-07-08T03:46:10.150Z,94959.54
2018-07-08T03:48:40.361Z,94961.60
2018-07-08T03:51:10.042Z,94962.80
2018-07-08T03:53:39.931Z,94961.90
2018-07-08T03:56:09.693Z,94969.70
2018-07-08T03:58:39.497Z,94968.21
2018-07-08T04:01:09.141Z,94958.67
2018-07-08T04:03:38.886Z,94961.70
2018-07-08T04:06:08.757Z,94956.86
2018-07-08T04:08:38.691Z,94959.50
2018-07-08T04:11:08.894Z,94959.08
2018-07-08T04:13:38.701Z,94960.11
2018-07-08T04:16:10.079Z,94960.52
2018-07-08T04:18:39.782Z,94965.18
2018-07-08T04:21:09.687Z,94966.55
2018-07-08T04:23:39.931Z,94962.84
2018-07-08T04:26:09.626Z,94958.68
2018-07-08T04:28:39.413Z,94965.87
2018-07-08T04:31:09.241Z,94964.70
2018-07-08T04:33:38.913Z,94965.67
2018-07-08T04:36:08.606Z,94965.95
2018-07-08T04:38:38.442Z,94961.83
2018-07-08T04:41:08.219Z,94963.62
2018-07-08T04:43:38.055Z,94963.87
2018-07-08T04:46:08.034Z,94964.41
2018-07-08T04:48:37.882Z,94966.45
2018-07-08T04:51:07.677Z,94958.38
2018-07-08T04:53:37.435Z,94967.36
2018-07-08T04:57:31.469Z,94963.21
2018-07-08T05:00:01.464Z,94956.14
2018-07-08T05:02:31.319Z,94958.50
2018-07-08T05:05:01.230Z,94959.05
2018-07-08T05:07:30.995Z,94961.05
2018-07-08T05:10:00.685Z,94968.41
2018-07-08T05:12:30.613Z,94969.66
2018-07-08T05:15:00.431Z,94966.50
2018-07-08T05:17:30.145Z,94966.41
2018-07-08T05:19:59.950Z,94969.13
2018-07-08T05:22:29.749Z,94974.73
2018-07-08T05:24:59.596Z,94973.02
2018-07-08T05:27:29.502Z,94977.52
2018-07-08T05:29:59.369Z,94981.23
2018-07-08T05:32:29.220Z,94975.71
2018-07-08T05:34:59.299Z,94980.78
2018-07-08T05:37:29.003Z,94766.09
2018-07-08T05:39:58.752Z,94987.73
2018-07-08T05:42:28.498Z,94982.59
2018-07-08T05:44:58.185Z,94975.86
2018-07-08T05:47:27.878Z,94979.81
2018-07-08T05:49:57.621Z,94974.97
2018-07-08T05:52:27.422Z,94969.11
2018-07-08T05:54:57.209Z,94968.40
2018-07-08T05:57:26.950Z,94963.92
2018-07-08T05:59:56.753Z,94966.08
2018-07-08T06:02:26.599Z,94971.09
2018-07-08T06:04:56.383Z,94969.77
2018-07-08T06:07:26.142Z,94967.11
2018-07-08T06:09:55.964Z,94955.80
2018-07-08T06:12:25.619Z,94966.68
2018-07-08T06:14:55.700Z,94960.98
2018-07-08T06:17:25.434Z,94964.99
2018-07-08T06:19:55.232Z,94957.85
2018-07-08T06:22:25.009Z,94953.42
2018-07-08T06:24:54.735Z,94956.42
2018-07-08T06:27:24.493Z,94949.68
2018-07-08T06:29:54.301Z,94946.83
2018-07-08T06:32:24.012Z,94953.84
2018-07-08T06:34:53.860Z,94956.22
2018-07-08T06:37:23.659Z,94953.20
2018-07-08T06:39:53.591Z,94955.03
2018-07-08T06:42:23.421Z,94959.12
2018-07-08T06:44:53.254Z,94951.12
2018-07-08T06:47:22.982Z,94899.03
2018-07-08T06:49:52.643Z,94952.17
2018-07-08T06:52:22.432Z,94952.39
2018-07-08T06:54:52.799Z,94944.81
2018-07-08T06:57:22.663Z,94945.52
2018-07-08T06:59:52.586Z,94937.92
2018-07-08T07:02:22.681Z,94942.27
2018-07-08T07:04:52.553Z,94942.30
2018-07-08T07:07:22.385Z,94944.73
2018-07-08T07:09:52.192Z,94943.67
2018-07-08T07:12:21.985Z,94938.78
2018-07-08T07:14:51.655Z,94937.98
2018-07-08T07:17:21.799Z,94935.86
2018-07-08T07:19:51.539Z,94924.09
2018-07-08T07:22:21.544Z,94929.48
2018-07-08T07:24:51.489Z,94926.30
2018-07-08T07:27:21.458Z,94922.77
2018-07-08T07:29:51.867Z,94919.66
2018-07-08T07:32:22.966Z,94916.77
2018-07-08T07:34:52.733Z,94925.45
2018-07-08T07:37:22.566Z,94928.94
2018-07-08T07:39:52.367Z,94925.16
2018-07-08T07:42:23.009Z,94932.41
2018-07-08T07:46:17.005Z,94928.45
2018-07-08T07:48:46.766Z,94929.96
2018-07-08T07:51:16.636Z,94923.05
2018-07-08T07:53:46.320Z,94914.98
2018-07-08T07:56:16.163Z,94921.19
2018-07-08T07:58:45.987Z,94922.74
2018-07-08T08:01:15.924Z,94917.82
2018-07-08T08:03:45.725Z,94911.95
2018-07-08T08:06:15.417Z,94909.09
2018-07-08T08:08:45.115Z,94909.42
2018-07-08T08:11:14.885Z,94901.34
2018-07-08T08:14:07.812Z,94905.27
2018-07-08T08:16:37.703Z,94910.36
2018-07-08T08:19:07.691Z,94906.31
2018-07-08T08:21:44.690Z,94907.28
2018-07-08T08:24:14.682Z,94904.23
2018-07-08T08:26:44.543Z,94898.58
2018-07-08T08:29:14.564Z,94898.11
2018-07-08T08:31:45.616Z,94903.19
2018-07-08T08:35:20.242Z,94891.31
2018-07-08T08:37:58.222Z,94890.45
2018-07-08T08:40:29.205Z,94888.98
2018-07-08T08:42:59.122Z,94890.02
2018-07-08T08:45:30.107Z,94898.88
2018-07-08T08:47:59.797Z,94892.59
2018-07-08T08:50:30.222Z,94894.40
2018-07-08T08:52:59.942Z,94888.86
2018-07-08T08:55:29.684Z,94682.22
2018-07-08T08:57:59.419Z,94885.98
2018-07-08T09:00:29.325Z,94885.48
2018-07-08T09:02:59.024Z,94884.70
2018-07-08T09:05:28.850Z,94890.05
2018-07-08T09:07:58.660Z,94888.70
2018-07-08T09:10:28.610Z,94884.59
2018-07-08T09:12:58.366Z,94874.83
2018-07-08T09:15:28.082Z,94877.09
2018-07-08T09:17:57.794Z,94874.03
2018-07-08T09:20:27.773Z,94869.19
2018-07-08T09:22:57.600Z,94871.20
2018-07-08T09:25:27.281Z,94871.61
2018-07-08T09:27:57.111Z,94868.70
2018-07-08T09:30:26.813Z,94870.92
2018-07-08T09:32:56.523Z,94865.27
2018-07-08T09:35:26.212Z,94861.58
2018-07-08T09:37:55.953Z,94867.80
2018-07-08T09:40:25.941Z,94861.77
2018-07-08T09:42:55.743Z,94857.84
2018-07-08T09:45:25.513Z,94857.69
2018-07-08T09:47:55.330Z,94857.27
2018-07-08T09:50:25.102Z,94853.97
2018-07-08T09:52:54.840Z,94850.63
2018-07-08T09:55:24.529Z,94850.10
2018-07-08T09:57:54.414Z,94843.69
2018-07-08T10:00:24.203Z,94846.00
2018-07-08T10:02:53.940Z,94844.06
2018-07-08T10:05:23.471Z,94841.99
2018-07-08T10:07:53.284Z,94840.96
2018-07-08T10:10:22.943Z,94836.47
2018-07-08T10:12:52.684Z,94831.52
2018-07-08T10:15:22.438Z,94833.34
2018-07-08T10:17:52.302Z,94834.53
2018-07-08T10:20:22.151Z,94829.67
2018-07-08T10:22:52.234Z,94827.73
2018-07-08T10:25:22.809Z,94825.70
2018-07-08T10:28:24.540Z,94825.43
2018-07-08T10:30:54.865Z,94820.09
2018-07-08T10:33:24.547Z,94819.27
2018-07-08T10:36:01.652Z,94817.73
2018-07-08T10:38:32.364Z,94804.17
2018-07-08T10:41:02.014Z,94808.73
2018-07-08T10:43:31.789Z,94803.34
2018-07-08T10:46:01.541Z,94800.40
2018-07-08T10:48:31.556Z,94803.33
2018-07-08T10:51:01.409Z,94800.31
2018-07-08T10:53:31.196Z,94791.07
2018-07-08T10:56:01.162Z,94787.94
2018-07-08T10:58:32.358Z,94780.55
2018-07-08T11:01:02.514Z,94778.39
2018-07-08T11:03:32.414Z,94769.11
2018-07-08T11:06:02.209Z,94777.83
2018-07-08T11:08:32.058Z,94778.34
2018-07-08T11:11:01.964Z,94786.25
2018-07-08T11:13:31.685Z,94793.13
2018-07-08T11:16:01.430Z,94799.30
2018-07-08T11:18:31.194Z,94804.68
2018-07-08T11:21:01.292Z,94805.00
2018-07-08T11:23:31.437Z,94807.69
2018-07-08T11:26:01.322Z,94804.97
2018-07-08T11:28:31.208Z,94817.31
2018-07-08T11:31:01.053Z,94829.13
2018-07-08T11:33:30.962Z,94843.16
2018-07-08T11:36:00.833Z,94842.14
2018-07-08T11:38:30.681Z,94844.50
2018-07-08T11:41:00.635Z,94848.61
2018-07-08T11:43:30.467Z,94854.24
2018-07-08T11:46:00.321Z,94863.48
2018-07-08T11:48:30.214Z,94868.59
2018-07-08T11:51:00.084Z,94855.52
2018-07-08T11:53:29.942Z,94846.48
2018-07-08T11:55:59.797Z,94846.59
2018-07-08T11:58:29.593Z,94845.14
2018-07-08T12:00:59.505Z,94839.78
2018-07-08T12:03:29.349Z,94832.31
2018-07-08T12:05:59.206Z,94825.11
2018-07-08T12:08:29.006Z,94822.88
2018-07-08T12:10:58.789Z,94819.81
2018-07-08T12:13:28.488Z,94824.48
2018-07-08T12:15:58.131Z,94822.90
2018-07-08T12:18:27.851Z,94823.80
2018-07-08T12:20:57.624Z,94823.86
2018-07-08T12:23:27.341Z,94822.19
2018-07-08T12:25:57.430Z,94831.98
2018-07-08T12:28:27.318Z,94834.13
2018-07-08T12:30:57.078Z,94828.30
2018-07-08T12:33:26.798Z,94828.54
2018-07-08T12:36:01.330Z,94823.89
2018-07-08T12:38:31.654Z,94818.13
2018-07-08T12:41:01.391Z,94818.16
2018-07-08T12:43:31.390Z,94828.84
2018-07-08T12:46:01.223Z,94828.49
2018-07-08T12:48:30.997Z,94830.64
2018-07-08T12:51:00.830Z,94817.19
2018-07-08T12:53:30.961Z,94820.30
2018-07-08T12:56:00.647Z,94816.22
2018-07-08T12:58:30.478Z,94818.30
2018-07-08T13:01:00.394Z,94819.48
2018-07-08T13:03:30.164Z,94818.75
2018-07-08T13:05:59.940Z,94818.95
2018-07-08T13:08:29.695Z,94819.33
2018-07-08T13:10:59.538Z,94819.71
2018-07-08T13:13:29.221Z,94824.23
2018-07-08T13:15:59.051Z,94814.19
2018-07-08T13:18:29.006Z,94810.39
2018-07-08T13:20:58.796Z,94813.74
2018-07-08T13:23:28.630Z,94817.00
2018-07-08T13:25:58.391Z,94820.05
2018-07-08T13:28:28.439Z,94825.08
2018-07-08T13:30:58.365Z,94816.21
2018-07-08T13:33:28.220Z,94817.44
2018-07-08T13:35:58.205Z,94816.24
2018-07-08T13:38:28.240Z,94812.91
2018-07-08T13:40:57.976Z,94808.44
2018-07-08T13:43:27.735Z,94810.80
2018-07-08T13:45:57.554Z,94809.59
2018-07-08T13:48:27.326Z,94807.66
2018-07-08T13:50:57.096Z,94802.41
2018-07-08T13:53:26.783Z,94805.64
2018-07-08T13:55:56.770Z,94797.58
2018-07-08T13:58:26.709Z,94798.31
2018-07-08T14:00:56.592Z,94790.19
2018-07-08T14:03:26.397Z,94785.33
2018-07-08T14:05:56.336Z,94778.53
2018-07-08T14:08:26.255Z,94780.70
2018-07-08T14:10:56.127Z,94778.28
2018-07-08T14:13:26.101Z,94778.51
2018-07-08T14:15:55.983Z,94782.03
2018-07-08T14:18:26.613Z,94775.79
2018-07-08T14:20:56.446Z,94773.41
2018-07-08T14:23:26.141Z,94773.48
2018-07-08T14:25:56.061Z,94771.20
2018-07-08T14:28:25.918Z,94774.45
2018-07-08T14:30:56.091Z,94776.00
2018-07-08T14:33:26.044Z,94766.17
2018-07-08T14:35:56.008Z,94760.08
2018-07-08T14:38:25.895Z,94767.33
2018-07-08T14:40:55.586Z,94769.77
2018-07-08T14:43:25.301Z,94759.88
2018-07-08T14:45:55.204Z,94764.92
2018-07-08T14:48:25.021Z,94765.56
2018-07-08T14:50:54.842Z,94772.50
2018-07-08T14:53:24.691Z,94765.28
2018-07-08T14:55:54.448Z,94770.67
2018-07-08T14:58:24.319Z,94769.70
2018-07-08T15:00:54.206Z,94765.44
2018-07-08T15:03:23.953Z,94762.77
2018-07-08T15:05:53.973Z,94764.77
2018-07-08T15:08:23.726Z,94760.77
2018-07-08T15:10:53.457Z,94758.08
2018-07-08T15:13:23.195Z,94764.20
2018-07-08T15:15:53.073Z,94759.94
2018-07-08T15:18:22.918Z,94770.36
2018-07-08T15:20:52.623Z,94768.66
2018-07-08T15:23:22.425Z,94773.70
2018-07-08T15:25:52.229Z,94767.32
2018-07-08T15:28:22.116Z,94776.34
2018-07-08T15:30:51.826Z,94773.90
2018-07-08T15:33:21.695Z,94778.52
2018-07-08T15:35:51.485Z,94778.26
2018-07-08T15:38:21.089Z,94787.61
2018-07-08T15:40:50.975Z,94808.39
2018-07-08T15:43:20.775Z,94795.41
2018-07-08T15:45:50.541Z,94797.70
2018-07-08T15:48:20.327Z,94793.69
2018-07-08T15:50:50.213Z,94793.69
2018-07-08T15:53:20.104Z,94797.41
2018-07-08T15:55:50.142Z,94795.08
2018-07-08T15:58:19.915Z,94795.22
2018-07-08T16:00:49.685Z,94795.11
2018-07-08T16:03:19.268Z,94796.64
2018-07-08T16:05:49.111Z,94796.58
2018-07-08T16:08:18.773Z,94796.94
2018-07-08T16:10:48.541Z,94802.08
2018-07-08T16:13:18.295Z,94801.20
2018-07-08T16:15:48.205Z,94798.55
2018-07-08T16:18:17.960Z,94795.97
2018-07-08T16:20:47.799Z,94797.20
2018-07-08T16:23:17.725Z,94804.83
2018-07-08T16:25:47.486Z,94811.27
2018-07-08T16:28:17.359Z,94812.34
2018-07-08T16:30:47.242Z,94813.31
2018-07-08T16:33:17.006Z,94811.58
2018-07-08T16:35:52.241Z,94810.82
2018-07-08T16:38:22.386Z,94816.55
2018-07-08T16:40:53.310Z,94818.58
2018-07-08T16:43:23.271Z,94815.41
2018-07-08T16:45:53.172Z,94823.71
2018-07-08T16:48:24.298Z,94829.38
2018-07-08T16:50:54.068Z,94827.38
2018-07-08T16:53:24.030Z,94832.48
2018-07-08T16:55:53.953Z,94840.70
2018-07-08T16:58:24.495Z,94837.75
2018-07-08T17:00:54.288Z,94846.17
2018-07-08T17:03:24.142Z,94844.53
2018-07-08T17:05:54.477Z,94851.55
2018-07-08T17:08:24.719Z,94849.33
2018-07-08T17:10:54.469Z,94849.19
2018-07-08T17:13:24.277Z,94857.65
2018-07-08T17:15:54.173Z,94861.23
2018-07-08T17:18:25.030Z,94869.23
2018-07-08T17:20:54.979Z,94877.95
2018-07-08T17:23:24.943Z,94877.47
2018-07-08T17:25:54.730Z,94874.59
2018-07-08T17:28:24.657Z,94882.48
2018-07-08T17:30:54.497Z,94884.94
2018-07-08T17:33:24.347Z,94883.69
2018-07-08T17:35:54.724Z,94887.75
2018-07-08T17:38:24.632Z,94891.63
2018-07-08T17:40:54.763Z,94892.56
2018-07-08T17:43:24.757Z,94895.05
2018-07-08T17:45:54.557Z,94898.02
2018-07-08T17:48:24.428Z,94903.73
2018-07-08T17:50:54.346Z,94897.86
2018-07-08T17:53:24.388Z,94907.23
2018-07-08T17:55:54.334Z,94897.55
2018-07-08T17:58:24.225Z,94900.85
2018-07-08T18:00:54.005Z,94905.73
2018-07-08T18:03:23.812Z,94900.23
2018-07-08T18:05:53.667Z,94908.96
2018-07-08T18:08:23.662Z,94900.84
2018-07-08T18:10:53.620Z,94906.06
2018-07-08T18:13:23.496Z,94907.97
2018-07-08T18:15:53.326Z,94911.78
2018-07-08T18:18:23.109Z,94908.66
2018-07-08T18:20:52.932Z,94910.49
2018-07-08T18:23:22.710Z,94905.81
2018-07-08T18:25:52.704Z,94914.24
2018-07-08T18:28:22.442Z,94925.39
2018-07-08T18:30:52.189Z,94937.76
2018-07-08T18:33:21.949Z,94946.98
2018-07-08T18:35:51.987Z,94951.42
2018-07-08T18:38:21.987Z,94963.45
2018-07-08T18:40:51.834Z,94964.59
2018-07-08T18:43:23.730Z,94979.29
2018-07-08T18:45:54.356Z,94970.47
2018-07-08T18:48:25.576Z,94971.96
2018-07-08T18:50:55.362Z,94971.95
2018-07-08T18:53:25.264Z,94975.52
2018-07-08T18:55:55.297Z,94984.87
2018-07-08T18:58:25.322Z,94988.73
2018-07-08T19:00:55.307Z,94984.88
2018-07-08T19:03:25.117Z,94982.22
2018-07-08T19:05:54.978Z,94987.28
2018-07-08T19:08:24.843Z,94982.41
2018-07-08T19:10:54.828Z,94991.40
2018-07-08T19:13:24.827Z,94984.27
2018-07-08T19:15:55.356Z,94989.78
2018-07-08T19:18:26.768Z,94985.73
2018-07-08T19:20:56.451Z,94994.64
2018-07-08T19:23:26.510Z,94987.37
2018-07-08T19:25:56.973Z,94988.65
2018-07-08T19:28:28.519Z,94979.16
2018-07-08T19:30:58.487Z,94984.16
2018-07-08T19:33:28.711Z,94990.44
2018-07-08T19:35:58.558Z,94984.60
2018-07-08T19:38:29.414Z,94984.00
2018-07-08T19:40:59.298Z,94982.38
2018-07-08T19:43:29.309Z,94978.59
2018-07-08T19:45:59.122Z,94981.82
2018-07-08T19:48:33.970Z,94973.30
2018-07-08T19:51:11.484Z,94969.48
2018-07-08T19:53:42.001Z,94978.30
2018-07-08T19:56:12.681Z,94974.94
2018-07-08T19:58:42.483Z,94974.27
2018-07-08T20:01:12.289Z,94973.69
2018-07-08T20:03:43.066Z,94968.94
2018-07-08T20:06:12.781Z,94982.59
2018-07-08T20:08:42.731Z,94975.50
2018-07-08T20:11:12.823Z,94972.56
2018-07-08T20:13:42.892Z,94975.34
2018-07-08T20:16:12.772Z,94981.62
2018-07-08T20:18:42.762Z,94987.25
2018-07-08T20:21:14.428Z,94985.83
2018-07-08T20:23:44.094Z,94980.11
2018-07-08T20:26:14.131Z,94983.05
2018-07-08T20:28:45.188Z,94982.36
2018-07-08T20:31:15.114Z,94982.13
2018-07-08T20:33:45.864Z,94977.89
2018-07-08T20:36:15.674Z,94980.58
2018-07-08T20:38:45.695Z,94996.08
2018-07-08T20:41:15.553Z,94984.50
2018-07-08T20:43:45.223Z,94980.45
2018-07-08T20:46:15.138Z,94983.59
2018-07-08T20:48:47.219Z,94985.50
2018-07-08T20:51:17.049Z,94980.11
2018-07-08T20:53:46.797Z,94982.02
2018-07-08T20:56:16.473Z,94983.27
2018-07-08T20:58:46.551Z,94982.09
2018-07-08T21:01:16.616Z,94986.25
2018-07-08T21:03:46.402Z,94984.67
2018-07-08T21:06:16.233Z,94981.55
2018-07-08T21:08:46.418Z,94984.91
2018-07-08T21:11:16.301Z,94980.88
2018-07-08T21:13:46.205Z,94982.81
2018-07-08T21:16:16.088Z,94984.63
2018-07-08T21:18:45.895Z,94974.47
2018-07-08T21:21:15.726Z,94975.29
2018-07-08T21:23:45.564Z,94974.64
2018-07-08T21:26:15.353Z,94974.62
2018-07-08T21:28:45.157Z,94976.78
2018-07-08T21:31:15.113Z,94968.94
2018-07-08T21:33:45.575Z,94969.78
2018-07-08T21:36:15.373Z,94969.48
2018-07-08T21:38:45.263Z,94965.99
2018-07-08T21:41:15.217Z,94965.97
2018-07-08T21:43:45.061Z,94961.63
2018-07-08T21:46:14.912Z,94959.58
2018-07-08T21:48:44.803Z,94960.86
2018-07-08T21:51:15.126Z,94959.69
2018-07-08T21:53:44.991Z,94967.85
2018-07-08T21:56:15.431Z,94965.46
2018-07-08T21:58:45.628Z,94968.79
2018-07-08T22:01:20.249Z,94974.02
2018-07-08T22:03:50.726Z,94978.06
2018-07-08T22:06:20.948Z,94975.80
2018-07-08T22:08:50.750Z,94972.27
2018-07-08T22:11:20.605Z,94975.69
2018-07-08T22:13:50.795Z,94982.04
2018-07-08T22:16:20.722Z,94986.63
2018-07-08T22:18:50.528Z,94986.31
2018-07-08T22:21:20.380Z,94989.30
2018-07-08T22:23:50.226Z,94989.88
2018-07-08T22:26:20.017Z,94992.47
2018-07-08T22:28:49.870Z,94999.63
2018-07-08T22:31:19.669Z,94997.28
2018-07-08T22:33:49.638Z,94996.28
2018-07-08T22:36:19.560Z,94996.94
2018-07-08T22:38:49.499Z,94999.92
2018-07-08T22:41:19.526Z,95002.62
2018-07-08T22:43:49.482Z,95001.86
2018-07-08T22:46:21.099Z,94995.09
2018-07-08T22:48:52.107Z,94987.25
2018-07-08T22:51:22.775Z,94993.69
2018-07-08T22:53:52.609Z,94984.95
2018-07-08T22:56:23.612Z,94991.00
2018-07-08T22:58:53.426Z,94987.96
2018-07-08T23:01:33.808Z,94982.34
2018-07-08T23:04:03.973Z,94984.67
2018-07-08T23:06:34.077Z,94987.96
2018-07-08T23:09:05.195Z,94993.66
2018-07-08T23:11:36.441Z,94996.16
2018-07-08T23:14:06.181Z,94996.47
2018-07-08T23:16:35.970Z,94989.66
2018-07-08T23:19:07.229Z,94993.11
2018-07-08T23:21:37.314Z,94991.88
2018-07-08T23:24:06.993Z,94987.84
2018-07-08T23:26:37.707Z,94991.33
2018-07-08T23:29:07.741Z,94997.08
2018-07-08T23:31:37.602Z,94988.98
2018-07-08T23:34:07.479Z,94986.19
2018-07-08T23:36:37.416Z,94986.20
2018-07-08T23:39:07.571Z,94991.34
2018-07-08T23:41:38.071Z,94991.81
2018-07-08T23:44:07.869Z,94992.58
2018-07-08T23:46:37.823Z,94987.55
2018-07-08T23:49:08.124Z,94990.00
2018-07-08T23:51:38.037Z,94982.60
2018-07-08T23:54:07.903Z,94986.17
2018-07-08T23:56:38.173Z,94991.88
2018-07-08T23:59:08.567Z,94996.06
